createdAt,value
2023-09-04T00:01:58.030Z,41.00
2023-09-04T00:04:24.353Z,47.53
2023-09-04T00:06:50.720Z,47.27
2023-09-04T00:09:17.023Z,44.15
2023-09-04T00:11:43.448Z,41.72
2023-09-04T00:14:09.798Z,41.52
2023-09-04T00:16:36.116Z,42.47
2023-09-04T00:19:02.482Z,42.77
2023-09-04T00:21:28.825Z,42.24
2023-09-04T00:23:55.222Z,41.21
2023-09-04T00:26:21.503Z,40.37
2023-09-04T00:28:47.983Z,45.53
2023-09-04T00:31:14.319Z,47.54
2023-09-04T00:33:40.650Z,44.19
2023-09-04T00:36:06.983Z,42.13
2023-09-04T00:38:33.267Z,41.37
2023-09-04T00:40:59.577Z,41.79
2023-09-04T00:43:25.923Z,41.82
2023-09-04T00:45:52.276Z,41.82
2023-09-04T00:48:18.634Z,41.17
2023-09-04T00:50:45.005Z,40.33
2023-09-04T00:53:11.313Z,44.62
2023-09-04T00:55:37.718Z,48.07
2023-09-04T00:58:04.179Z,44.38
2023-09-04T01:00:30.496Z,41.97
2023-09-04T01:02:56.882Z,41.37
2023-09-04T01:05:23.306Z,41.43
2023-09-04T01:07:49.581Z,41.95
2023-09-04T01:10:15.953Z,42.21
2023-09-04T01:12:42.416Z,41.42
2023-09-04T01:15:08.757Z,40.83
2023-09-04T01:17:35.220Z,42.84
2023-09-04T01:20:01.639Z,48.69
2023-09-04T01:22:27.980Z,45.42
2023-09-04T01:24:54.295Z,42.57
2023-09-04T01:27:20.942Z,41.81
2023-09-04T01:29:47.256Z,42.08
2023-09-04T01:32:14.547Z,42.35
2023-09-04T01:34:40.917Z,42.53
2023-09-04T01:37:07.245Z,41.82
2023-09-04T01:39:33.600Z,41.06
2023-09-04T01:42:00.110Z,42.47
2023-09-04T01:44:26.446Z,47.29
2023-09-04T01:46:52.782Z,45.97
2023-09-04T01:49:19.195Z,43.57
2023-09-04T01:51:45.496Z,41.39
2023-09-04T01:54:11.837Z,41.38
2023-09-04T01:56:38.184Z,42.13
2023-09-04T01:59:04.572Z,42.36
2023-09-04T02:01:30.953Z,41.81
2023-09-04T02:03:57.541Z,40.64
2023-09-04T02:06:23.882Z,40.96
2023-09-04T02:08:50.206Z,46.94
2023-09-04T02:11:17.641Z,46.39
2023-09-04T02:13:43.953Z,43.32
2023-09-04T02:16:10.346Z,41.71
2023-09-04T02:18:36.759Z,42.50
2023-09-04T02:21:03.089Z,43.00
2023-09-04T02:23:29.383Z,42.52
2023-09-04T02:25:55.951Z,42.00
2023-09-04T02:28:22.544Z,40.77
2023-09-04T02:30:49.191Z,40.33
2023-09-04T02:33:15.640Z,46.17
2023-09-04T02:35:42.010Z,47.07
2023-09-04T02:38:08.313Z,43.77
2023-09-04T02:40:34.713Z,42.79
2023-09-04T02:43:01.055Z,42.46
2023-09-04T02:45:28.858Z,42.57
2023-09-04T02:47:55.648Z,42.40
2023-09-04T02:50:22.041Z,42.25
2023-09-04T02:52:48.375Z,40.82
2023-09-04T02:55:14.792Z,40.21
2023-09-04T02:57:41.087Z,46.13
2023-09-04T03:00:07.431Z,47.14
2023-09-04T03:02:34.235Z,43.53
2023-09-04T03:05:00.657Z,42.05
2023-09-04T03:07:26.978Z,42.17
2023-09-04T03:09:53.468Z,41.96
2023-09-04T03:12:19.812Z,42.04
2023-09-04T03:14:46.114Z,41.56
2023-09-04T03:17:12.437Z,40.49
2023-09-04T03:19:38.793Z,39.98
2023-09-04T03:22:05.102Z,44.75
2023-09-04T03:24:31.496Z,47.18
2023-09-04T03:26:57.834Z,43.82
2023-09-04T03:29:24.134Z,42.01
2023-09-04T03:31:51.132Z,41.49
2023-09-04T03:34:17.597Z,41.54
2023-09-04T03:36:43.928Z,41.22
2023-09-04T03:39:10.324Z,41.20
2023-09-04T03:41:36.664Z,40.30
2023-09-04T03:44:02.987Z,39.99
2023-09-04T03:46:29.435Z,44.65
2023-09-04T03:48:55.872Z,47.44
2023-09-04T03:51:22.194Z,43.90
2023-09-04T03:53:48.642Z,41.94
2023-09-04T03:56:15.004Z,41.52
2023-09-04T03:58:41.321Z,41.73
2023-09-04T04:01:07.739Z,42.13
2023-09-04T04:03:34.246Z,42.09
2023-09-04T04:06:00.818Z,41.15
2023-09-04T04:08:27.161Z,40.20
2023-09-04T04:10:53.474Z,43.04
2023-09-04T04:13:39.764Z,47.00
2023-09-04T04:16:26.130Z,43.03
2023-09-04T04:18:52.526Z,42.08
2023-09-04T04:21:18.853Z,42.11
2023-09-04T04:23:47.053Z,42.79
2023-09-04T04:26:13.811Z,42.48
2023-09-04T04:28:40.142Z,41.76
2023-09-04T04:31:06.413Z,40.71
2023-09-04T04:33:32.773Z,39.84
2023-09-04T04:35:59.119Z,43.85
2023-09-04T04:38:25.989Z,47.17
2023-09-04T04:40:52.689Z,43.85
2023-09-04T04:43:19.062Z,42.68
2023-09-04T04:45:45.391Z,43.05
2023-09-04T04:48:11.791Z,43.83
2023-09-04T04:50:38.169Z,42.94
2023-09-04T04:53:04.466Z,42.50
2023-09-04T04:55:30.787Z,41.18
2023-09-04T04:57:57.805Z,40.18
2023-09-04T05:00:24.096Z,44.01
2023-09-04T05:02:50.574Z,46.96
2023-09-04T05:05:16.898Z,43.35
2023-09-04T05:07:43.216Z,42.12
2023-09-04T05:10:09.613Z,42.12
2023-09-04T05:12:35.966Z,42.75
2023-09-04T05:15:02.254Z,42.79
2023-09-04T05:17:28.592Z,42.14
2023-09-04T05:19:54.916Z,41.27
2023-09-04T05:22:21.198Z,40.20
2023-09-04T05:24:48.014Z,43.95
2023-09-04T05:27:14.349Z,47.68
2023-09-04T05:29:40.658Z,44.44
2023-09-04T05:32:07.009Z,42.69
2023-09-04T05:34:38.156Z,42.70
2023-09-04T05:37:04.460Z,43.42
2023-09-04T05:39:30.771Z,42.99
2023-09-04T05:41:57.150Z,42.70
2023-09-04T05:44:23.471Z,41.57
2023-09-04T05:46:50.120Z,40.49
2023-09-04T05:49:17.684Z,42.88
2023-09-04T05:51:43.969Z,47.04
2023-09-04T05:54:10.344Z,45.00
2023-09-04T05:56:36.714Z,42.83
2023-09-04T05:59:03.047Z,41.74
2023-09-04T06:01:29.399Z,41.92
2023-09-04T06:03:55.889Z,42.37
2023-09-04T06:06:22.252Z,42.02
2023-09-04T06:08:48.741Z,41.62
2023-09-04T06:11:15.133Z,40.94
2023-09-04T06:13:41.538Z,42.44
2023-09-04T06:16:08.103Z,48.22
2023-09-04T06:18:34.469Z,46.23
2023-09-04T06:21:00.859Z,43.15
2023-09-04T06:23:27.240Z,42.40
2023-09-04T06:25:53.553Z,43.21
2023-09-04T06:28:19.963Z,43.89
2023-09-04T06:30:46.485Z,43.22
2023-09-04T06:33:13.114Z,42.81
2023-09-04T06:35:39.454Z,41.77
2023-09-04T06:38:05.840Z,42.77
2023-09-04T06:40:32.184Z,48.99
2023-09-04T06:42:58.511Z,47.51
2023-09-04T06:45:25.052Z,44.46
2023-09-04T06:47:51.464Z,42.46
2023-09-04T06:50:17.818Z,42.42
2023-09-04T06:52:44.182Z,42.07
2023-09-04T06:55:10.520Z,42.88
2023-09-04T06:57:36.818Z,42.03
2023-09-04T07:00:03.207Z,41.35
2023-09-04T07:02:29.585Z,41.22
2023-09-04T07:04:55.962Z,47.58
2023-09-04T07:07:22.381Z,47.83
2023-09-04T07:09:48.815Z,44.92
2023-09-04T07:12:15.114Z,43.40
2023-09-04T07:14:41.642Z,43.10
2023-09-04T07:17:09.400Z,42.72
2023-09-04T07:19:36.576Z,42.71
2023-09-04T07:22:02.955Z,42.72
2023-09-04T07:24:29.458Z,41.34
2023-09-04T07:26:55.815Z,40.67
2023-09-04T07:29:22.339Z,45.74
2023-09-04T07:31:48.780Z,47.44
2023-09-04T07:34:15.188Z,43.66
2023-09-04T07:36:41.605Z,41.84
2023-09-04T07:39:07.943Z,41.10
2023-09-04T07:41:34.295Z,42.25
2023-09-04T07:44:00.790Z,41.92
2023-09-04T07:46:27.104Z,41.81
2023-09-04T07:48:53.614Z,40.86
2023-09-04T07:51:33.068Z,40.17
2023-09-04T07:54:01.521Z,44.53
2023-09-04T07:56:28.640Z,48.06
2023-09-04T07:58:55.147Z,44.48
2023-09-04T08:01:21.557Z,42.64
2023-09-04T08:03:48.007Z,42.69
2023-09-04T08:06:14.413Z,42.70
2023-09-04T08:08:40.768Z,42.59
2023-09-04T08:11:07.165Z,42.50
2023-09-04T08:13:33.492Z,41.55
2023-09-04T08:15:59.850Z,40.97
2023-09-04T08:18:26.226Z,44.31
2023-09-04T08:20:52.639Z,45.64
2023-09-04T08:23:19.123Z,47.65
2023-09-04T08:25:45.454Z,46.18
2023-09-04T08:28:11.807Z,46.07
2023-09-04T08:30:38.223Z,46.66
2023-09-04T08:33:06.022Z,46.66
2023-09-04T08:35:32.420Z,46.54
2023-09-04T08:37:59.026Z,46.54
2023-09-04T08:40:25.472Z,46.61
2023-09-04T08:42:51.847Z,46.47
2023-09-04T08:45:18.315Z,46.21
2023-09-04T08:47:45.026Z,46.09
2023-09-04T08:50:11.424Z,46.15
2023-09-04T08:52:37.923Z,45.76
2023-09-04T08:55:04.324Z,45.91
2023-09-04T08:57:30.695Z,46.02
2023-09-04T08:59:57.074Z,45.84
2023-09-04T09:02:23.599Z,46.18
2023-09-04T09:04:49.960Z,46.36
2023-09-04T09:07:16.414Z,46.40
2023-09-04T09:09:42.771Z,46.06
2023-09-04T09:12:09.135Z,46.31
2023-09-04T09:14:35.501Z,46.23
2023-09-04T09:17:01.887Z,46.08
2023-09-04T09:19:28.208Z,46.27
2023-09-04T09:21:54.545Z,46.29
2023-09-04T09:24:21.220Z,46.18
2023-09-04T09:26:47.700Z,46.98
2023-09-04T09:29:14.158Z,47.04
2023-09-04T09:31:40.695Z,47.48
2023-09-04T09:34:07.123Z,47.67
2023-09-04T09:36:33.548Z,47.66
2023-09-04T09:39:00.051Z,47.27
2023-09-04T09:41:26.425Z,47.34
2023-09-04T09:43:52.778Z,47.76
2023-09-04T09:46:19.261Z,47.73
2023-09-04T09:48:45.641Z,47.62
2023-09-04T09:51:11.982Z,47.64
2023-09-04T09:53:38.388Z,47.86
2023-09-04T09:56:04.827Z,47.89
2023-09-04T09:58:31.201Z,47.88
2023-09-04T10:00:57.717Z,47.80
2023-09-04T10:03:24.069Z,47.13
2023-09-04T10:05:50.412Z,47.29
2023-09-04T10:08:16.944Z,47.00
2023-09-04T10:10:43.289Z,46.77
2023-09-04T10:13:09.633Z,46.35
2023-09-04T10:15:36.072Z,46.62
2023-09-04T10:18:02.451Z,46.25
2023-09-04T10:20:28.805Z,46.68
2023-09-04T10:22:55.158Z,46.54
2023-09-04T10:25:21.494Z,46.13
2023-09-04T10:27:47.916Z,46.22
2023-09-04T10:30:16.682Z,46.58
2023-09-04T10:32:43.031Z,46.26
2023-09-04T10:35:09.394Z,46.23
2023-09-04T10:37:35.750Z,46.21
2023-09-04T10:40:03.243Z,45.44
2023-09-04T10:42:29.789Z,45.86
2023-09-04T10:44:56.118Z,46.30
2023-09-04T10:47:22.444Z,45.78
2023-09-04T10:49:49.873Z,46.28
2023-09-04T10:52:16.228Z,46.51
2023-09-04T10:54:42.567Z,46.25
2023-09-04T10:57:08.981Z,46.36
2023-09-04T10:59:37.956Z,45.86
2023-09-04T11:02:04.457Z,46.07
2023-09-04T11:04:30.826Z,46.13
2023-09-04T11:06:57.246Z,46.10
2023-09-04T11:09:23.613Z,46.35
2023-09-04T11:11:50.158Z,47.42
2023-09-04T11:14:16.566Z,47.40
2023-09-04T11:16:42.996Z,47.41
2023-09-04T11:21:37.693Z,47.45
2023-09-04T11:24:04.145Z,47.53
2023-09-04T11:26:30.571Z,47.10
2023-09-04T11:28:57.131Z,47.35
2023-09-04T11:31:23.615Z,47.32
2023-09-04T11:33:50.339Z,47.32
2023-09-04T11:36:19.160Z,47.42
2023-09-04T11:38:45.478Z,47.53
2023-09-04T11:41:11.877Z,47.22
2023-09-04T11:43:39.543Z,47.74
2023-09-04T11:46:06.047Z,47.33
2023-09-04T11:48:32.428Z,47.47
2023-09-04T11:50:58.833Z,47.24
2023-09-04T11:53:25.722Z,47.44
2023-09-04T11:55:52.710Z,47.27
2023-09-04T11:58:19.123Z,47.40
2023-09-04T12:00:45.489Z,47.92
2023-09-04T12:03:12.159Z,47.98
2023-09-04T12:59:21.343Z,47.93
2023-09-04T13:01:47.875Z,48.50
2023-09-04T13:04:14.295Z,48.39
2023-09-04T13:06:41.515Z,47.74
2023-09-04T13:09:07.881Z,47.00
2023-09-04T13:11:34.261Z,46.95
2023-09-04T13:14:03.081Z,46.97
2023-09-04T13:16:29.494Z,46.61
2023-09-04T13:18:55.871Z,46.64
2023-09-04T13:21:22.440Z,46.92
2023-09-04T13:23:48.829Z,47.08
2023-09-04T13:26:15.278Z,46.93
2023-09-04T13:28:41.700Z,46.79
2023-09-04T13:31:09.610Z,46.74
2023-09-04T13:33:36.101Z,46.67
2023-09-04T13:36:03.636Z,47.01
2023-09-04T13:38:30.131Z,47.22
2023-09-04T13:40:56.424Z,47.15
2023-09-04T13:43:23.268Z,47.11
2023-09-04T13:45:49.886Z,46.98
2023-09-04T13:48:16.267Z,46.64
2023-09-04T13:50:42.769Z,47.09
2023-09-04T13:53:09.125Z,46.87
2023-09-04T13:55:35.493Z,46.38
2023-09-04T13:58:02.008Z,46.88
2023-09-04T14:00:28.372Z,46.59
2023-09-04T14:02:54.922Z,46.61
2023-09-04T14:05:23.804Z,46.43
2023-09-04T14:07:52.605Z,46.20
2023-09-04T14:10:19.080Z,46.21
2023-09-04T14:12:45.503Z,46.18
2023-09-04T14:15:11.954Z,46.67
2023-09-04T14:17:38.398Z,46.37
2023-09-04T14:20:06.058Z,46.25
2023-09-04T14:22:32.441Z,46.51
2023-09-04T14:24:58.792Z,46.31
2023-09-04T14:27:25.188Z,46.14
2023-09-04T14:29:51.761Z,45.92
2023-09-04T14:32:18.089Z,45.73
2023-09-04T14:34:44.537Z,46.14
2023-09-04T14:39:40.147Z,46.52
2023-09-04T14:42:06.630Z,46.48
2023-09-04T14:44:32.992Z,46.84
2023-09-04T14:46:59.363Z,46.85
2023-09-04T14:49:25.727Z,46.59
2023-09-04T14:51:52.093Z,46.64
2023-09-04T14:54:19.503Z,46.84
2023-09-04T14:56:45.889Z,46.91
2023-09-04T14:59:12.240Z,46.33
2023-09-04T15:01:38.578Z,46.32
2023-09-04T15:04:05.452Z,46.36
2023-09-04T15:06:32.069Z,46.21
2023-09-04T15:08:58.489Z,45.49
2023-09-04T15:11:26.224Z,45.14
2023-09-04T15:13:55.019Z,44.24
2023-09-04T15:16:21.341Z,44.17
2023-09-04T15:18:48.749Z,44.63
2023-09-04T15:21:15.071Z,44.13
2023-09-04T15:23:41.433Z,43.94
2023-09-04T15:26:07.941Z,43.81
2023-09-04T15:28:34.269Z,43.59
2023-09-04T15:31:00.664Z,44.11
2023-09-04T15:33:27.422Z,43.95
2023-09-04T15:35:54.070Z,43.59
2023-09-04T15:38:20.536Z,43.41
2023-09-04T15:40:47.437Z,43.38
2023-09-04T15:43:13.756Z,43.83
2023-09-04T15:45:40.094Z,43.70
2023-09-04T15:48:06.585Z,43.33
2023-09-04T15:50:33.137Z,43.03
2023-09-04T15:52:59.413Z,43.47
2023-09-04T15:55:25.902Z,42.90
2023-09-04T15:57:52.298Z,43.44
2023-09-04T16:00:18.591Z,42.59
2023-09-04T16:02:44.977Z,42.54
2023-09-04T16:05:11.453Z,42.48
2023-09-04T16:07:37.757Z,42.36
2023-09-04T16:10:04.295Z,42.45
2023-09-04T16:12:30.619Z,42.37
2023-09-04T16:14:56.947Z,42.64
2023-09-04T16:17:23.278Z,42.29
2023-09-04T16:19:49.607Z,42.11
2023-09-04T16:22:15.904Z,42.29
2023-09-04T16:24:42.284Z,42.56
2023-09-04T16:27:08.607Z,42.51
2023-09-04T16:29:34.932Z,42.27
2023-09-04T16:32:01.282Z,43.21
2023-09-04T16:34:27.639Z,43.13
2023-09-04T16:36:53.898Z,42.88
2023-09-04T16:39:20.216Z,41.73
2023-09-04T16:41:46.636Z,41.48
2023-09-04T16:44:12.970Z,41.25
2023-09-04T16:46:39.325Z,40.80
2023-09-04T16:49:05.865Z,40.43
2023-09-04T16:51:39.373Z,40.17
2023-09-04T16:54:12.953Z,40.39
2023-09-04T16:56:39.257Z,40.08
2023-09-04T16:59:07.207Z,39.53
2023-09-04T17:01:34.237Z,39.67
2023-09-04T17:04:00.643Z,39.31
2023-09-04T17:06:26.938Z,40.02
2023-09-04T17:08:53.316Z,40.60
2023-09-04T17:11:19.616Z,41.02
2023-09-04T17:13:45.983Z,41.74
2023-09-04T17:16:12.358Z,41.39
2023-09-04T17:18:38.670Z,41.75
2023-09-04T17:21:04.971Z,41.63
2023-09-04T17:23:31.366Z,41.05
2023-09-04T17:25:57.740Z,39.83
2023-09-04T17:28:24.462Z,39.62
2023-09-04T17:30:51.335Z,39.09
2023-09-04T17:33:17.652Z,38.55
2023-09-04T17:35:44.032Z,38.44
2023-09-04T17:38:10.434Z,38.76
2023-09-04T17:40:36.719Z,38.14
2023-09-04T17:43:03.060Z,38.16
2023-09-04T17:45:29.528Z,38.32
2023-09-04T17:47:55.995Z,38.18
2023-09-04T17:50:22.404Z,38.36
2023-09-04T17:52:48.743Z,38.08
2023-09-04T17:55:15.063Z,38.84
2023-09-04T17:57:41.358Z,39.18
2023-09-04T18:00:07.764Z,39.08
2023-09-04T18:02:34.166Z,39.40
2023-09-04T18:05:00.566Z,39.23
2023-09-04T18:07:26.906Z,39.68
2023-09-04T18:09:53.212Z,40.24
2023-09-04T18:12:19.603Z,40.68
2023-09-04T18:14:46.138Z,40.95
2023-09-04T18:17:12.617Z,40.39
2023-09-04T18:19:38.886Z,40.18
2023-09-04T18:22:06.409Z,40.37
2023-09-04T18:24:32.926Z,41.04
2023-09-04T18:26:59.226Z,41.21
2023-09-04T18:29:25.604Z,41.01
2023-09-04T18:31:51.934Z,41.42
2023-09-04T18:34:18.227Z,40.81
2023-09-04T18:36:44.595Z,40.92
2023-09-04T18:39:10.932Z,41.14
2023-09-04T18:41:37.225Z,40.58
2023-09-04T18:44:03.598Z,40.49
2023-09-04T18:46:29.980Z,39.70
2023-09-04T18:48:56.443Z,40.30
2023-09-04T18:51:22.811Z,45.68
2023-09-04T18:53:49.109Z,45.02
2023-09-04T18:56:15.402Z,41.91
2023-09-04T18:58:41.763Z,38.64
2023-09-04T19:01:08.108Z,37.80
2023-09-04T19:03:34.449Z,38.27
2023-09-04T19:06:01.062Z,40.14
2023-09-04T19:08:27.563Z,40.89
2023-09-04T19:10:54.194Z,40.52
2023-09-04T19:13:20.607Z,41.31
2023-09-04T19:15:46.983Z,40.39
2023-09-04T19:18:13.288Z,42.11
2023-09-04T19:20:39.893Z,47.36
2023-09-04T19:23:06.205Z,45.06
2023-09-04T19:25:32.469Z,42.29
2023-09-04T19:27:58.990Z,39.58
2023-09-04T19:30:25.319Z,38.68
2023-09-04T19:32:51.693Z,39.00
2023-09-04T19:35:18.204Z,40.11
2023-09-04T19:37:44.530Z,40.35
2023-09-04T19:40:10.828Z,40.72
2023-09-04T19:42:37.207Z,41.00
2023-09-04T19:45:03.552Z,41.27
2023-09-04T19:47:29.923Z,46.80
2023-09-04T19:49:56.502Z,45.50
2023-09-04T19:52:22.990Z,42.33
2023-09-04T19:54:49.291Z,39.58
2023-09-04T19:57:15.675Z,38.51
2023-09-04T19:59:41.955Z,38.67
2023-09-04T20:02:09.669Z,39.98
2023-09-04T20:04:36.276Z,39.93
2023-09-04T20:07:02.611Z,40.42
2023-09-04T20:09:29.231Z,40.56
2023-09-04T20:11:55.580Z,40.07
2023-09-04T20:14:21.868Z,45.43
2023-09-04T20:16:48.157Z,46.30
2023-09-04T20:19:14.672Z,42.50
2023-09-04T20:21:40.979Z,40.21
2023-09-04T20:24:07.356Z,38.49
2023-09-04T20:26:43.604Z,39.18
2023-09-04T20:29:15.637Z,40.09
2023-09-04T20:31:41.991Z,40.86
2023-09-04T20:34:08.321Z,41.23
2023-09-04T20:36:34.626Z,41.34
2023-09-04T20:39:01.007Z,40.87
2023-09-04T20:41:27.288Z,44.10
2023-09-04T20:43:53.599Z,47.58
2023-09-04T20:46:20.124Z,44.20
2023-09-04T20:48:46.434Z,41.30
2023-09-04T20:51:12.809Z,39.14
2023-09-04T20:53:39.376Z,38.72
2023-09-04T20:56:05.773Z,39.34
2023-09-04T20:58:32.038Z,40.38
2023-09-04T21:00:58.603Z,41.00
2023-09-04T21:03:25.027Z,40.63
2023-09-04T21:05:51.494Z,40.68
2023-09-04T21:08:17.844Z,40.93
2023-09-04T21:10:44.182Z,46.01
2023-09-04T21:13:10.488Z,45.28
2023-09-04T21:15:36.874Z,41.79
2023-09-04T21:18:03.300Z,39.15
2023-09-04T21:20:29.621Z,38.16
2023-09-04T21:22:55.993Z,38.68
2023-09-04T21:25:22.289Z,39.75
2023-09-04T21:27:48.651Z,39.94
2023-09-04T21:30:14.951Z,40.55
2023-09-04T21:32:41.250Z,41.01
2023-09-04T21:35:07.590Z,43.05
2023-09-04T21:37:33.952Z,46.20
2023-09-04T21:40:00.279Z,44.27
2023-09-04T21:42:26.598Z,41.32
2023-09-04T21:44:54.327Z,39.69
2023-09-04T21:47:20.636Z,39.12
2023-09-04T21:49:46.973Z,40.20
2023-09-04T21:52:13.308Z,40.55
2023-09-04T21:54:39.636Z,40.90
2023-09-04T21:57:05.932Z,41.08
2023-09-04T21:59:32.533Z,41.25
2023-09-04T22:01:58.895Z,44.87
2023-09-04T22:04:25.190Z,47.61
2023-09-04T22:06:51.903Z,43.14
2023-09-04T22:09:18.203Z,40.99
2023-09-04T22:11:44.497Z,38.85
2023-09-04T22:14:10.839Z,38.72
2023-09-04T22:16:40.285Z,39.90
2023-09-04T22:19:09.409Z,40.59
2023-09-04T22:21:35.822Z,41.31
2023-09-04T22:24:02.120Z,41.63
2023-09-04T22:26:28.406Z,41.02
2023-09-04T22:28:54.764Z,46.42
2023-09-04T22:31:21.272Z,47.05
2023-09-04T22:33:47.613Z,43.11
2023-09-04T22:36:13.973Z,40.19
2023-09-04T22:38:40.306Z,39.53
2023-09-04T22:41:06.604Z,39.63
2023-09-04T22:43:32.920Z,40.78
2023-09-04T22:45:59.212Z,40.92
2023-09-04T22:48:25.556Z,41.39
2023-09-04T22:50:52.062Z,40.88
2023-09-04T22:53:18.409Z,41.58
2023-09-04T22:55:44.739Z,46.85
2023-09-04T22:58:11.254Z,44.83
2023-09-04T23:00:37.600Z,42.25
2023-09-04T23:03:04.094Z,40.94
2023-09-04T23:05:30.517Z,41.30
2023-09-04T23:07:56.826Z,41.99
2023-09-04T23:10:23.188Z,42.52
2023-09-04T23:12:49.592Z,42.25
2023-09-04T23:15:15.925Z,42.29
2023-09-04T23:17:42.265Z,42.08
2023-09-04T23:20:08.759Z,45.96
2023-09-04T23:22:35.053Z,46.21
2023-09-04T23:25:01.337Z,42.30
2023-09-04T23:27:27.989Z,40.74
2023-09-04T23:29:54.297Z,39.87
2023-09-04T23:32:20.614Z,40.59
2023-09-04T23:34:47.076Z,41.09
2023-09-04T23:37:13.394Z,41.33
2023-09-04T23:39:39.733Z,41.02
2023-09-04T23:42:06.193Z,41.18
2023-09-04T23:44:32.494Z,45.83
2023-09-04T23:46:58.759Z,46.96
2023-09-04T23:49:25.262Z,42.80
2023-09-04T23:51:51.571Z,40.82
2023-09-04T23:54:17.883Z,39.56
2023-09-04T23:56:44.251Z,40.96
2023-09-04T23:59:10.577Z,41.31
